sensor_id;sensor_type;location;lat;lon;timestamp;pressure;altitude;pressure_sealevel;temperature;humidity
56668;BME280;42542;48.360;10.958;2024-01-30T00:01:52;97536.22;;;-0.99;100.00
56668;BME280;42542;48.360;10.958;2024-01-30T00:04:54;97532.78;;;-1.01;100.00
56668;BME280;42542;48.360;10.958;2024-01-30T00:07:56;97534.63;;;-1.03;100.00
56668;BME280;42542;48.360;10.958;2024-01-30T00:10:59;97523.56;;;-1.11;100.00
56668;BME280;42542;48.360;10.958;2024-01-30T00:14:00;97526.91;;;-1.07;100.00
56668;BME280;42542;48.360;10.958;2024-01-30T00:17:03;97531.44;;;-1.11;100.00
56668;BME280;42542;48.360;10.958;2024-01-30T00:20:05;97529.06;;;-1.17;100.00
56668;BME280;42542;48.360;10.958;2024-01-30T00:23:08;97535.84;;;-1.11;100.00
56668;BME280;42542;48.360;10.958;2024-01-30T00:26:10;97539.38;;;-1.12;100.00
56668;BME280;42542;48.360;10.958;2024-01-30T00:29:12;97535.09;;;-1.15;100.00
56668;BME280;42542;48.360;10.958;2024-01-30T00:32:21;97536.94;;;-1.17;100.00
56668;BME280;42542;48.360;10.958;2024-01-30T00:35:25;97539.50;;;-1.15;100.00
56668;BME280;42542;48.360;10.958;2024-01-30T00:38:26;97534.31;;;-1.17;100.00
56668;BME280;42542;48.360;10.958;2024-01-30T00:41:28;97529.22;;;-1.22;100.00
56668;BME280;42542;48.360;10.958;2024-01-30T00:44:30;97531.78;;;-1.20;100.00
56668;BME280;42542;48.360;10.958;2024-01-30T00:47:33;97520.81;;;-1.30;100.00
56668;BME280;42542;48.360;10.958;2024-01-30T00:50:35;97537.16;;;-1.23;100.00
56668;BME280;42542;48.360;10.958;2024-01-30T00:53:36;97543.38;;;-1.26;100.00
56668;BME280;42542;48.360;10.958;2024-01-30T00:56:38;97537.28;;;-1.26;100.00
56668;BME280;42542;48.360;10.958;2024-01-30T00:59:40;97534.84;;;-1.31;100.00
56668;BME280;42542;48.360;10.958;2024-01-30T01:02:42;97540.00;;;-1.29;100.00
56668;BME280;42542;48.360;10.958;2024-01-30T01:05:44;97542.56;;;-1.28;100.00
56668;BME280;42542;48.360;10.958;2024-01-30T01:08:46;97548.81;;;-1.30;100.00
56668;BME280;42542;48.360;10.958;2024-01-30T01:11:47;97554.09;;;-1.32;100.00
56668;BME280;42542;48.360;10.958;2024-01-30T01:14:50;97549.75;;;-1.33;100.00
56668;BME280;42542;48.360;10.958;2024-01-30T01:17:51;97556.78;;;-1.33;100.00
56668;BME280;42542;48.360;10.958;2024-01-30T01:20:53;97549.00;;;-1.36;100.00
56668;BME280;42542;48.360;10.958;2024-01-30T01:23:55;97555.06;;;-1.34;100.00
56668;BME280;42542;48.360;10.958;2024-01-30T01:26:58;97548.09;;;-1.35;100.00
56668;BME280;42542;48.360;10.958;2024-01-30T01:30:00;97550.78;;;-1.37;100.00
56668;BME280;42542;48.360;10.958;2024-01-30T01:33:02;97547.38;;;-1.39;100.00
56668;BME280;42542;48.360;10.958;2024-01-30T01:36:05;97546.56;;;-1.41;100.00
56668;BME280;42542;48.360;10.958;2024-01-30T01:39:08;97549.19;;;-1.41;100.00
56668;BME280;42542;48.360;10.958;2024-01-30T01:42:10;97555.38;;;-1.43;100.00
56668;BME280;42542;48.360;10.958;2024-01-30T01:45:12;97548.56;;;-1.47;100.00
56668;BME280;42542;48.360;10.958;2024-01-30T01:48:14;97550.22;;;-1.45;100.00
56668;BME280;42542;48.360;10.958;2024-01-30T01:51:16;97552.94;;;-1.48;100.00
56668;BME280;42542;48.360;10.958;2024-01-30T01:54:18;97547.81;;;-1.51;100.00
56668;BME280;42542;48.360;10.958;2024-01-30T01:57:20;97541.72;;;-1.51;100.00
56668;BME280;42542;48.360;10.958;2024-01-30T02:00:23;97539.16;;;-1.53;100.00
56668;BME280;42542;48.360;10.958;2024-01-30T02:03:25;97548.78;;;-1.53;100.00
56668;BME280;42542;48.360;10.958;2024-01-30T02:06:27;97544.50;;;-1.56;100.00
56668;BME280;42542;48.360;10.958;2024-01-30T02:09:29;97541.88;;;-1.56;100.00
56668;BME280;42542;48.360;10.958;2024-01-30T02:12:31;97536.78;;;-1.59;100.00
56668;BME280;42542;48.360;10.958;2024-01-30T02:15:33;97547.25;;;-1.59;100.00
56668;BME280;42542;48.360;10.958;2024-01-30T02:18:35;97539.50;;;-1.62;100.00
56668;BME280;42542;48.360;10.958;2024-01-30T02:21:38;97543.78;;;-1.60;100.00
56668;BME280;42542;48.360;10.958;2024-01-30T02:24:40;97539.50;;;-1.62;100.00
56668;BME280;42542;48.360;10.958;2024-01-30T02:27:42;97530.09;;;-1.68;100.00
56668;BME280;42542;48.360;10.958;2024-01-30T02:30:45;97540.41;;;-1.63;100.00
56668;BME280;42542;48.360;10.958;2024-01-30T02:33:47;97536.91;;;-1.64;100.00
56668;BME280;42542;48.360;10.958;2024-01-30T02:36:49;97533.50;;;-1.66;100.00
56668;BME280;42542;48.360;10.958;2024-01-30T02:39:51;97532.66;;;-1.66;100.00
56668;BME280;42542;48.360;10.958;2024-01-30T02:42:53;97519.59;;;-1.68;100.00
56668;BME280;42542;48.360;10.958;2024-01-30T02:45:55;97522.31;;;-1.71;100.00
56668;BME280;42542;48.360;10.958;2024-01-30T02:48:57;97527.50;;;-1.69;100.00
56668;BME280;42542;48.360;10.958;2024-01-30T02:51:59;97520.50;;;-1.69;100.00
56668;BME280;42542;48.360;10.958;2024-01-30T02:55:01;97516.22;;;-1.71;100.00
56668;BME280;42542;48.360;10.958;2024-01-30T02:58:03;97518.84;;;-1.71;100.00
56668;BME280;42542;48.360;10.958;2024-01-30T03:01:06;97513.59;;;-1.71;100.00
56668;BME280;42542;48.360;10.958;2024-01-30T03:04:08;97516.28;;;-1.73;100.00
56668;BME280;42542;48.360;10.958;2024-01-30T03:07:10;97519.69;;;-1.71;100.00
56668;BME280;42542;48.360;10.958;2024-01-30T03:10:12;97514.50;;;-1.72;100.00
56668;BME280;42542;48.360;10.958;2024-01-30T03:13:14;97521.47;;;-1.71;100.00
56668;BME280;42542;48.360;10.958;2024-01-30T03:16:16;97520.56;;;-1.70;100.00
56668;BME280;42542;48.360;10.958;2024-01-30T03:19:18;97518.84;;;-1.71;100.00
56668;BME280;42542;48.360;10.958;2024-01-30T03:22:20;97508.34;;;-1.71;100.00
56668;BME280;42542;48.360;10.958;2024-01-30T03:25:22;97512.75;;;-1.72;100.00
56668;BME280;42542;48.360;10.958;2024-01-30T03:28:24;97510.13;;;-1.72;100.00
56668;BME280;42542;48.360;10.958;2024-01-30T03:31:26;97514.59;;;-1.74;100.00
56668;BME280;42542;48.360;10.958;2024-01-30T03:34:28;97510.19;;;-1.73;100.00
56668;BME280;42542;48.360;10.958;2024-01-30T03:37:30;97503.28;;;-1.76;100.00
56668;BME280;42542;48.360;10.958;2024-01-30T03:40:31;97498.16;;;-1.79;100.00
56668;BME280;42542;48.360;10.958;2024-01-30T03:43:33;97504.88;;;-1.72;100.00
56668;BME280;42542;48.360;10.958;2024-01-30T03:46:35;97497.09;;;-1.73;100.00
56668;BME280;42542;48.360;10.958;2024-01-30T03:49:37;97500.50;;;-1.71;100.00
56668;BME280;42542;48.360;10.958;2024-01-30T03:52:39;97501.41;;;-1.72;100.00
56668;BME280;42542;48.360;10.958;2024-01-30T03:55:40;97500.53;;;-1.73;100.00
56668;BME280;42542;48.360;10.958;2024-01-30T03:58:43;97491.00;;;-1.74;100.00
56668;BME280;42542;48.360;10.958;2024-01-30T04:01:46;97501.41;;;-1.72;100.00
56668;BME280;42542;48.360;10.958;2024-01-30T04:04:48;97494.53;;;-1.75;100.00
56668;BME280;42542;48.360;10.958;2024-01-30T04:07:51;97504.09;;;-1.74;100.00
56668;BME280;42542;48.360;10.958;2024-01-30T04:10:53;97497.16;;;-1.75;100.00
56668;BME280;42542;48.360;10.958;2024-01-30T04:13:54;97505.88;;;-1.74;100.00
56668;BME280;42542;48.360;10.958;2024-01-30T04:16:56;97499.78;;;-1.75;100.00
56668;BME280;42542;48.360;10.958;2024-01-30T04:19:58;97503.25;;;-1.74;100.00
56668;BME280;42542;48.360;10.958;2024-01-30T04:22:59;97508.53;;;-1.76;100.00
56668;BME280;42542;48.360;10.958;2024-01-30T04:26:02;97513.78;;;-1.76;100.00
56668;BME280;42542;48.360;10.958;2024-01-30T04:29:04;97506.88;;;-1.78;100.00
56668;BME280;42542;48.360;10.958;2024-01-30T04:32:06;97504.19;;;-1.77;100.00
56668;BME280;42542;48.360;10.958;2024-01-30T04:35:08;97515.53;;;-1.76;100.00
56668;BME280;42542;48.360;10.958;2024-01-30T04:38:12;97508.59;;;-1.77;100.00
56668;BME280;42542;48.360;10.958;2024-01-30T04:41:15;97515.53;;;-1.76;100.00
56668;BME280;42542;48.360;10.958;2024-01-30T04:44:17;97508.59;;;-1.77;100.00
56668;BME280;42542;48.360;10.958;2024-01-30T04:47:19;97506.81;;;-1.77;100.00
56668;BME280;42542;48.360;10.958;2024-01-30T04:50:23;97507.72;;;-1.78;100.00
56668;BME280;42542;48.360;10.958;2024-01-30T04:53:25;97510.31;;;-1.76;100.00
56668;BME280;42542;48.360;10.958;2024-01-30T04:56:27;97505.09;;;-1.78;100.00
56668;BME280;42542;48.360;10.958;2024-01-30T04:59:29;97510.41;;;-1.79;100.00
56668;BME280;42542;48.360;10.958;2024-01-30T05:02:31;97514.69;;;-1.77;100.00
56668;BME280;42542;48.360;10.958;2024-01-30T05:05:33;97512.13;;;-1.78;100.00
56668;BME280;42542;48.360;10.958;2024-01-30T05:08:34;97510.34;;;-1.78;100.00
56668;BME280;42542;48.360;10.958;2024-01-30T05:11:40;97506.88;;;-1.78;100.00
56668;BME280;42542;48.360;10.958;2024-01-30T05:14:43;97516.44;;;-1.77;100.00
56668;BME280;42542;48.360;10.958;2024-01-30T05:17:45;97511.22;;;-1.77;100.00
56668;BME280;42542;48.360;10.958;2024-01-30T05:20:46;97517.34;;;-1.78;100.00
56668;BME280;42542;48.360;10.958;2024-01-30T05:23:48;97517.34;;;-1.78;100.00
56668;BME280;42542;48.360;10.958;2024-01-30T05:26:50;97513.97;;;-1.80;100.00
56668;BME280;42542;48.360;10.958;2024-01-30T05:29:53;97513.03;;;-1.79;100.00
56668;BME280;42542;48.360;10.958;2024-01-30T05:32:55;97514.78;;;-1.80;100.00
56668;BME280;42542;48.360;10.958;2024-01-30T05:35:56;97513.97;;;-1.80;100.00
56668;BME280;42542;48.360;10.958;2024-01-30T05:38:58;97518.34;;;-1.81;100.00
56668;BME280;42542;48.360;10.958;2024-01-30T05:42:00;97514.88;;;-1.81;100.00
56668;BME280;42542;48.360;10.958;2024-01-30T05:45:02;97507.31;;;-1.90;100.00
56668;BME280;42542;48.360;10.958;2024-01-30T05:48:04;97520.16;;;-1.83;100.00
56668;BME280;42542;48.360;10.958;2024-01-30T05:51:07;97528.88;;;-1.82;100.00
56668;BME280;42542;48.360;10.958;2024-01-30T05:54:10;97533.31;;;-1.84;100.00
56668;BME280;42542;48.360;10.958;2024-01-30T05:57:15;97520.38;;;-1.89;100.00
56668;BME280;42542;48.360;10.958;2024-01-30T06:00:16;97527.47;;;-1.92;100.00
56668;BME280;42542;48.360;10.958;2024-01-30T06:03:18;97532.56;;;-1.88;100.00
56668;BME280;42542;48.360;10.958;2024-01-30T06:06:20;97530.00;;;-1.89;100.00
56668;BME280;42542;48.360;10.958;2024-01-30T06:09:22;97526.56;;;-1.91;100.00
56668;BME280;42542;48.360;10.958;2024-01-30T06:12:24;97524.84;;;-1.92;100.00
56668;BME280;42542;48.360;10.958;2024-01-30T06:15:27;97543.19;;;-1.92;100.00
56668;BME280;42542;48.360;10.958;2024-01-30T06:18:31;97536.25;;;-1.93;100.00
56668;BME280;42542;48.360;10.958;2024-01-30T06:21:32;97538.94;;;-1.95;100.00
56668;BME280;42542;48.360;10.958;2024-01-30T06:24:38;97534.59;;;-1.96;100.00
56668;BME280;42542;48.360;10.958;2024-01-30T06:27:39;97524.97;;;-1.95;100.00
56668;BME280;42542;48.360;10.958;2024-01-30T06:30:42;97534.66;;;-1.98;100.00
56668;BME280;42542;48.360;10.958;2024-01-30T06:33:47;97532.13;;;-2.01;100.00
56668;BME280;42542;48.360;10.958;2024-01-30T06:36:49;97535.66;;;-2.02;100.00
56668;BME280;42542;48.360;10.958;2024-01-30T06:39:51;97538.34;;;-2.03;100.00
56668;BME280;42542;48.360;10.958;2024-01-30T06:42:54;97535.81;;;-2.06;100.00
56668;BME280;42542;48.360;10.958;2024-01-30T06:45:56;97541.91;;;-2.06;100.00
56668;BME280;42542;48.360;10.958;2024-01-30T06:48:57;97543.72;;;-2.08;100.00
56668;BME280;42542;48.360;10.958;2024-01-30T06:51:59;97542.00;;;-2.09;100.00
56668;BME280;42542;48.360;10.958;2024-01-30T06:55:01;97549.09;;;-2.11;100.00
56668;BME280;42542;48.360;10.958;2024-01-30T06:58:03;97554.41;;;-2.14;100.00
56668;BME280;42542;48.360;10.958;2024-01-30T07:01:06;97542.22;;;-2.15;100.00
56668;BME280;42542;48.360;10.958;2024-01-30T07:04:08;97555.41;;;-2.16;100.00
56668;BME280;42542;48.360;10.958;2024-01-30T07:07:10;97555.41;;;-2.16;100.00
56668;BME280;42542;48.360;10.958;2024-01-30T07:10:14;97554.41;;;-2.14;100.00
56668;BME280;42542;48.360;10.958;2024-01-30T07:13:16;97552.66;;;-2.13;100.00
56668;BME280;42542;48.360;10.958;2024-01-30T07:16:18;97558.75;;;-2.13;100.00
56668;BME280;42542;48.360;10.958;2024-01-30T07:19:20;97552.69;;;-2.15;100.00
56668;BME280;42542;48.360;10.958;2024-01-30T07:22:21;97554.31;;;-2.11;100.00
56668;BME280;42542;48.360;10.958;2024-01-30T07:25:24;97561.28;;;-2.10;100.00
56668;BME280;42542;48.360;10.958;2024-01-30T07:28:28;97564.63;;;-2.06;100.00
56668;BME280;42542;48.360;10.958;2024-01-30T07:31:31;97563.72;;;-2.05;100.00
56668;BME280;42542;48.360;10.958;2024-01-30T07:34:35;97561.94;;;-2.03;100.00
56668;BME280;42542;48.360;10.958;2024-01-30T07:37:50;97567.03;;;-2.00;100.00
56668;BME280;42542;48.360;10.958;2024-01-30T07:40:52;97570.47;;;-1.98;100.00
56668;BME280;42542;48.360;10.958;2024-01-30T07:43:55;97566.00;;;-1.94;100.00
56668;BME280;42542;48.360;10.958;2024-01-30T07:46:56;97572.03;;;-1.92;100.00
56668;BME280;42542;48.360;10.958;2024-01-30T07:49:59;97567.59;;;-1.90;100.00
56668;BME280;42542;48.360;10.958;2024-01-30T07:53:01;97569.19;;;-1.86;100.00
56668;BME280;42542;48.360;10.958;2024-01-30T07:56:04;97576.03;;;-1.82;100.00
56668;BME280;42542;48.360;10.958;2024-01-30T07:59:09;97581.97;;;-1.77;100.00
56668;BME280;42542;48.360;10.958;2024-01-30T08:02:12;97574.88;;;-1.74;100.00
56668;BME280;42542;48.360;10.958;2024-01-30T08:05:15;97581.75;;;-1.71;100.00
56668;BME280;42542;48.360;10.958;2024-01-30T08:08:16;97573.03;;;-1.72;100.00
56668;BME280;42542;48.360;10.958;2024-01-30T08:11:20;97575.34;;;-1.63;100.00
56668;BME280;42542;48.360;10.958;2024-01-30T08:14:22;97587.31;;;-1.55;100.00
56668;BME280;42542;48.360;10.958;2024-01-30T08:17:23;97575.75;;;-1.50;100.00
56668;BME280;42542;48.360;10.958;2024-01-30T08:20:25;97581.63;;;-1.43;100.00
56668;BME280;42542;48.360;10.958;2024-01-30T08:23:27;97578.84;;;-1.39;100.00
56668;BME280;42542;48.360;10.958;2024-01-30T08:26:29;97576.84;;;-1.32;100.00
56668;BME280;42542;48.360;10.958;2024-01-30T08:29:31;97585.34;;;-1.26;100.00
56668;BME280;42542;48.360;10.958;2024-01-30T08:32:33;97585.13;;;-1.20;100.00
56668;BME280;42542;48.360;10.958;2024-01-30T08:35:35;97585.69;;;-1.11;100.00
56668;BME280;42542;48.360;10.958;2024-01-30T08:38:36;97588.03;;;-1.04;100.00
56668;BME280;42542;48.360;10.958;2024-01-30T08:41:39;97582.44;;;-0.95;100.00
56668;BME280;42542;48.360;10.958;2024-01-30T08:44:40;97584.69;;;-0.86;100.00
56668;BME280;42542;48.360;10.958;2024-01-30T08:47:43;97581.75;;;-0.78;100.00
56668;BME280;42542;48.360;10.958;2024-01-30T08:50:44;97579.69;;;-0.70;100.00
56668;BME280;42542;48.360;10.958;2024-01-30T08:53:46;97578.50;;;-0.61;100.00
56668;BME280;42542;48.360;10.958;2024-01-30T08:56:48;97583.25;;;-0.49;100.00
56668;BME280;42542;48.360;10.958;2024-01-30T08:59:50;97576.78;;;-0.41;100.00
56668;BME280;42542;48.360;10.958;2024-01-30T09:02:51;97584.34;;;-0.33;100.00
56668;BME280;42542;48.360;10.958;2024-01-30T09:05:54;97582.22;;;-0.23;100.00
56668;BME280;42542;48.360;10.958;2024-01-30T09:08:55;97581.81;;;-0.14;100.00
56668;BME280;42542;48.360;10.958;2024-01-30T09:11:59;97580.53;;;-0.04;100.00
56668;BME280;42542;48.360;10.958;2024-01-30T09:15:06;97569.63;;;0.05;100.00
56668;BME280;42542;48.360;10.958;2024-01-30T09:18:09;97574.28;;;0.19;100.00
56668;BME280;42542;48.360;10.958;2024-01-30T09:21:11;97564.31;;;0.27;100.00
56668;BME280;42542;48.360;10.958;2024-01-30T09:24:13;97580.47;;;0.38;100.00
56668;BME280;42542;48.360;10.958;2024-01-30T09:27:15;97570.34;;;0.49;100.00
56668;BME280;42542;48.360;10.958;2024-01-30T09:30:17;97575.13;;;0.60;100.00
56668;BME280;42542;48.360;10.958;2024-01-30T09:33:19;97579.91;;;0.70;100.00
56668;BME280;42542;48.360;10.958;2024-01-30T09:36:22;97574.22;;;0.79;100.00
56668;BME280;42542;48.360;10.958;2024-01-30T09:39:24;97567.00;;;0.85;100.00
56668;BME280;42542;48.360;10.958;2024-01-30T09:45:31;97575.09;;;1.17;100.00
56668;BME280;42542;48.360;10.958;2024-01-30T09:48:35;97576.09;;;1.34;100.00
56668;BME280;42542;48.360;10.958;2024-01-30T09:51:37;97577.38;;;1.44;100.00
56668;BME280;42542;48.360;10.958;2024-01-30T09:54:40;97572.44;;;1.55;100.00
56668;BME280;42542;48.360;10.958;2024-01-30T09:57:43;97570.06;;;1.68;100.00
56668;BME280;42542;48.360;10.958;2024-01-30T10:00:46;97577.22;;;1.83;100.00
56668;BME280;42542;48.360;10.958;2024-01-30T10:03:50;97571.44;;;1.93;100.00
56668;BME280;42542;48.360;10.958;2024-01-30T10:06:54;97567.19;;;2.08;100.00
56668;BME280;42542;48.360;10.958;2024-01-30T10:09:56;97573.53;;;2.21;100.00
56668;BME280;42542;48.360;10.958;2024-01-30T10:12:58;97568.47;;;2.34;100.00
56668;BME280;42542;48.360;10.958;2024-01-30T10:16:04;97568.63;;;2.48;100.00
56668;BME280;42542;48.360;10.958;2024-01-30T10:19:08;97568.06;;;2.59;100.00
56668;BME280;42542;48.360;10.958;2024-01-30T10:22:10;97560.34;;;2.71;100.00
56668;BME280;42542;48.360;10.958;2024-01-30T10:25:12;97556.91;;;2.87;100.00
56668;BME280;42542;48.360;10.958;2024-01-30T10:28:14;97556.25;;;2.99;100.00
56668;BME280;42542;48.360;10.958;2024-01-30T10:31:17;97552.75;;;3.14;100.00
56668;BME280;42542;48.360;10.958;2024-01-30T10:34:19;97546.81;;;3.26;100.00
56668;BME280;42542;48.360;10.958;2024-01-30T10:37:25;97552.78;;;3.45;100.00
56668;BME280;42542;48.360;10.958;2024-01-30T10:40:28;97540.75;;;3.56;99.59
56668;BME280;42542;48.360;10.958;2024-01-30T10:43:32;97533.06;;;3.67;100.00
56668;BME280;42542;48.360;10.958;2024-01-30T10:46:41;97531.41;;;3.80;99.61
56668;BME280;42542;48.360;10.958;2024-01-30T10:49:44;97528.25;;;3.89;98.79
56668;BME280;42542;48.360;10.958;2024-01-30T10:52:49;97523.25;;;3.99;98.11
56668;BME280;42542;48.360;10.958;2024-01-30T10:55:51;97528.88;;;4.08;97.30
56668;BME280;42542;48.360;10.958;2024-01-30T10:58:54;97516.78;;;4.18;96.61
56668;BME280;42542;48.360;10.958;2024-01-30T11:01:59;97512.81;;;4.25;96.14
56668;BME280;42542;48.360;10.958;2024-01-30T11:05:04;97510.41;;;4.37;96.05
56668;BME280;42542;48.360;10.958;2024-01-30T11:08:13;97517.03;;;4.44;95.84
56668;BME280;42542;48.360;10.958;2024-01-30T11:11:16;97512.13;;;4.52;96.32
56668;BME280;42542;48.360;10.958;2024-01-30T11:14:25;97515.91;;;4.62;95.71
56668;BME280;42542;48.360;10.958;2024-01-30T11:17:27;97514.41;;;4.72;95.26
56668;BME280;42542;48.360;10.958;2024-01-30T11:20:30;97519.22;;;4.80;95.23
56668;BME280;42542;48.360;10.958;2024-01-30T11:23:33;97508.25;;;4.86;94.69
56668;BME280;42542;48.360;10.958;2024-01-30T11:26:36;97509.50;;;4.94;93.94
56668;BME280;42542;48.360;10.958;2024-01-30T11:29:39;97503.63;;;5.03;94.02
56668;BME280;42542;48.360;10.958;2024-01-30T11:32:41;97489.97;;;5.09;93.67
56668;BME280;42542;48.360;10.958;2024-01-30T11:35:45;97492.88;;;5.19;92.21
56668;BME280;42542;48.360;10.958;2024-01-30T11:38:47;97493.91;;;5.31;92.47
56668;BME280;42542;48.360;10.958;2024-01-30T11:41:51;97483.66;;;5.39;92.21
56668;BME280;42542;48.360;10.958;2024-01-30T11:44:54;97484.03;;;5.47;92.15
56668;BME280;42542;48.360;10.958;2024-01-30T11:47:56;97485.19;;;5.56;91.07
56668;BME280;42542;48.360;10.958;2024-01-30T11:50:58;97478.44;;;5.64;91.26
56668;BME280;42542;48.360;10.958;2024-01-30T11:54:01;97483.06;;;5.75;90.23
56668;BME280;42542;48.360;10.958;2024-01-30T11:57:04;97478.94;;;5.83;90.50
56668;BME280;42542;48.360;10.958;2024-01-30T12:00:14;97487.06;;;5.95;89.73
56668;BME280;42542;48.360;10.958;2024-01-30T12:03:16;97473.38;;;6.01;89.74
56668;BME280;42542;48.360;10.958;2024-01-30T12:06:19;97478.94;;;6.10;89.26
56668;BME280;42542;48.360;10.958;2024-01-30T12:09:20;97470.44;;;6.18;88.96
56668;BME280;42542;48.360;10.958;2024-01-30T12:12:27;97477.66;;;6.28;88.93
56668;BME280;42542;48.360;10.958;2024-01-30T12:15:29;97477.91;;;6.38;89.06
56668;BME280;42542;48.360;10.958;2024-01-30T12:18:31;97471.31;;;6.44;88.43
56668;BME280;42542;48.360;10.958;2024-01-30T12:21:34;97465.38;;;6.53;87.92
56668;BME280;42542;48.360;10.958;2024-01-30T12:24:36;97466.53;;;6.61;87.59
56668;BME280;42542;48.360;10.958;2024-01-30T12:27:39;97459.84;;;6.69;86.18
56668;BME280;42542;48.360;10.958;2024-01-30T12:30:41;97456.63;;;6.76;87.36
56668;BME280;42542;48.360;10.958;2024-01-30T12:33:44;97451.63;;;6.84;87.16
56668;BME280;42542;48.360;10.958;2024-01-30T12:36:47;97455.41;;;6.93;85.84
56668;BME280;42542;48.360;10.958;2024-01-30T12:39:53;97458.50;;;6.99;85.41
56668;BME280;42542;48.360;10.958;2024-01-30T12:42:56;97454.56;;;7.05;84.91
56668;BME280;42542;48.360;10.958;2024-01-30T12:45:58;97451.47;;;7.11;84.81
56668;BME280;42542;48.360;10.958;2024-01-30T12:49:01;97450.91;;;7.19;84.96
56668;BME280;42542;48.360;10.958;2024-01-30T12:52:03;97442.59;;;7.23;84.81
56668;BME280;42542;48.360;10.958;2024-01-30T12:55:05;97449.41;;;7.27;83.89
56668;BME280;42542;48.360;10.958;2024-01-30T12:58:08;97436.59;;;7.32;83.45
56668;BME280;42542;48.360;10.958;2024-01-30T13:01:10;97440.53;;;7.39;84.14
56668;BME280;42542;48.360;10.958;2024-01-30T13:04:12;97447.09;;;7.47;83.34
56668;BME280;42542;48.360;10.958;2024-01-30T13:07:15;97443.88;;;7.54;83.42
56668;BME280;42542;48.360;10.958;2024-01-30T13:10:18;97443.41;;;7.60;83.12
56668;BME280;42542;48.360;10.958;2024-01-30T13:13:20;97436.44;;;7.70;82.40
56668;BME280;42542;48.360;10.958;2024-01-30T13:16:22;97440.34;;;7.77;82.42
56668;BME280;42542;48.360;10.958;2024-01-30T13:19:25;97430.09;;;7.84;81.95
56668;BME280;42542;48.360;10.958;2024-01-30T13:22:26;97436.66;;;7.91;81.66
56668;BME280;42542;48.360;10.958;2024-01-30T13:25:28;97432.41;;;8.00;81.10
56668;BME280;42542;48.360;10.958;2024-01-30T13:28:30;97432.69;;;8.08;81.49
56668;BME280;42542;48.360;10.958;2024-01-30T13:31:33;97436.56;;;8.15;81.56
56668;BME280;42542;48.360;10.958;2024-01-30T13:34:35;97432.72;;;8.19;81.42
56668;BME280;42542;48.360;10.958;2024-01-30T13:37:37;97442.06;;;8.24;80.70
56668;BME280;42542;48.360;10.958;2024-01-30T13:40:39;97440.72;;;8.30;81.58
56668;BME280;42542;48.360;10.958;2024-01-30T13:43:41;97436.19;;;8.32;80.69
56668;BME280;42542;48.360;10.958;2024-01-30T13:46:43;97440.28;;;8.36;80.48
56668;BME280;42542;48.360;10.958;2024-01-30T13:49:45;97443.56;;;8.40;80.21
56668;BME280;42542;48.360;10.958;2024-01-30T13:52:47;97442.50;;;8.42;79.71
56668;BME280;42542;48.360;10.958;2024-01-30T13:55:49;97440.44;;;8.46;78.97
56668;BME280;42542;48.360;10.958;2024-01-30T13:58:51;97441.28;;;8.46;78.02
56668;BME280;42542;48.360;10.958;2024-01-30T14:01:53;97445.53;;;8.49;78.88
56668;BME280;42542;48.360;10.958;2024-01-30T14:04:55;97444.56;;;8.50;79.25
56668;BME280;42542;48.360;10.958;2024-01-30T14:07:57;97447.94;;;8.52;78.77
56668;BME280;42542;48.360;10.958;2024-01-30T14:11:00;97447.25;;;8.50;78.72
56668;BME280;42542;48.360;10.958;2024-01-30T14:14:02;97438.41;;;8.49;78.22
56668;BME280;42542;48.360;10.958;2024-01-30T14:17:04;97449.91;;;8.50;76.87
56668;BME280;42542;48.360;10.958;2024-01-30T14:20:08;97443.34;;;8.54;77.22
56668;BME280;42542;48.360;10.958;2024-01-30T14:23:11;97437.91;;;8.55;76.92
56668;BME280;42542;48.360;10.958;2024-01-30T14:26:13;97436.81;;;8.58;77.00
56668;BME280;42542;48.360;10.958;2024-01-30T14:29:18;97439.25;;;8.61;77.35
56668;BME280;42542;48.360;10.958;2024-01-30T14:32:21;97440.94;;;8.62;77.38
56668;BME280;42542;48.360;10.958;2024-01-30T14:35:23;97437.31;;;8.63;76.66
56668;BME280;42542;48.360;10.958;2024-01-30T14:38:24;97446.16;;;8.64;77.23
56668;BME280;42542;48.360;10.958;2024-01-30T14:41:27;97446.16;;;8.64;76.65
56668;BME280;42542;48.360;10.958;2024-01-30T14:44:30;97436.56;;;8.61;76.96
56668;BME280;42542;48.360;10.958;2024-01-30T14:47:33;97439.03;;;8.64;77.27
56668;BME280;42542;48.360;10.958;2024-01-30T14:50:35;97440.09;;;8.61;77.95
56668;BME280;42542;48.360;10.958;2024-01-30T14:53:36;97446.50;;;8.59;77.00
56668;BME280;42542;48.360;10.958;2024-01-30T14:56:38;97448.47;;;8.57;77.68
56668;BME280;42542;48.360;10.958;2024-01-30T14:59:41;97454.13;;;8.52;78.20
56668;BME280;42542;48.360;10.958;2024-01-30T15:02:43;97454.50;;;8.48;79.05
56668;BME280;42542;48.360;10.958;2024-01-30T15:05:46;97450.50;;;8.42;78.26
56668;BME280;42542;48.360;10.958;2024-01-30T15:08:47;97449.38;;;8.34;78.31
56668;BME280;42542;48.360;10.958;2024-01-30T15:11:49;97457.19;;;8.24;79.30
56668;BME280;42542;48.360;10.958;2024-01-30T15:14:51;97453.28;;;8.17;79.97
56668;BME280;42542;48.360;10.958;2024-01-30T15:17:54;97459.31;;;8.08;80.32
56668;BME280;42542;48.360;10.958;2024-01-30T15:20:56;97459.19;;;7.98;80.88
56668;BME280;42542;48.360;10.958;2024-01-30T15:23:59;97459.00;;;7.89;81.10
56668;BME280;42542;48.360;10.958;2024-01-30T15:27:03;97467.81;;;7.78;81.32
56668;BME280;42542;48.360;10.958;2024-01-30T15:30:06;97462.31;;;7.68;81.87
56668;BME280;42542;48.360;10.958;2024-01-30T15:33:09;97471.81;;;7.60;82.32
56668;BME280;42542;48.360;10.958;2024-01-30T15:36:11;97474.53;;;7.47;82.17
56668;BME280;42542;48.360;10.958;2024-01-30T15:39:15;97467.56;;;7.33;82.24
56668;BME280;42542;48.360;10.958;2024-01-30T15:42:20;97476.31;;;7.23;83.29
56668;BME280;42542;48.360;10.958;2024-01-30T15:45:22;97475.41;;;7.11;83.78
56668;BME280;42542;48.360;10.958;2024-01-30T15:48:26;97478.91;;;6.99;84.01
56668;BME280;42542;48.360;10.958;2024-01-30T15:51:27;97482.44;;;6.87;84.46
56668;BME280;42542;48.360;10.958;2024-01-30T15:54:30;97486.94;;;6.74;84.63